createdAt,value
2022-08-29T00:00:17.602Z,101203.38
2022-08-29T00:02:49.757Z,101184.84
2022-08-29T00:05:22.262Z,101193.63
2022-08-29T00:07:52.019Z,101205.44
2022-08-29T00:10:18.523Z,101207.09
2022-08-29T00:12:45.503Z,101195.16
2022-08-29T00:15:14.303Z,101207.28
2022-08-29T00:17:41.983Z,101207.28
2022-08-29T00:20:16.133Z,101201.22
2022-08-29T00:22:43.176Z,101209.16
2022-08-29T00:25:13.130Z,101209.97
2022-08-29T00:27:39.774Z,101206.44
2022-08-29T00:30:12.505Z,101202.06
2022-08-29T00:32:39.135Z,101200.06
2022-08-29T00:35:12.476Z,101215.59
2022-08-29T00:37:39.587Z,101210.19
2022-08-29T00:40:09.632Z,101209.31
2022-08-29T00:42:36.328Z,101208.66
2022-08-29T00:45:05.906Z,101211.88
2022-08-29T00:47:36.870Z,101221.16
2022-08-29T00:50:07.651Z,101220.13
2022-08-29T00:52:42.855Z,101217.44
2022-08-29T00:55:13.271Z,101222.81
2022-08-29T00:57:47.977Z,101219.28
2022-08-29T01:00:17.154Z,101208.16
2022-08-29T01:02:44.112Z,101223.03
2022-08-29T01:05:15.224Z,101221.34
2022-08-29T01:07:43.140Z,101231.13
2022-08-29T01:10:31.182Z,101228.44
2022-08-29T01:12:57.882Z,101217.66
2022-08-29T01:15:24.856Z,101221.34
2022-08-29T01:17:51.950Z,101239.38
2022-08-29T01:20:37.389Z,101236.69
2022-08-29T01:23:20.947Z,101231.44
2022-08-29T01:25:50.962Z,101233.16
2022-08-29T01:28:31.586Z,101231.44
2022-08-29T01:30:58.012Z,101231.44
2022-08-29T01:33:24.774Z,101236.84
2022-08-29T01:35:51.464Z,101231.44
2022-08-29T01:38:27.661Z,101240.59
2022-08-29T01:41:02.602Z,101236.00
2022-08-29T01:43:29.987Z,101244.28
2022-08-29T01:45:57.826Z,101223.75
2022-08-29T01:48:24.630Z,101237.22
2022-08-29T01:50:51.182Z,101245.31
2022-08-29T01:53:19.299Z,101237.22
2022-08-29T01:55:45.743Z,101244.28
2022-08-29T01:58:12.234Z,101252.09
2022-08-29T02:00:39.041Z,101246.03
2022-08-29T02:03:05.592Z,101250.72
2022-08-29T02:05:32.042Z,101241.47
2022-08-29T02:07:58.599Z,101255.28
2022-08-29T02:10:25.124Z,101263.41
2022-08-29T02:12:52.568Z,101246.19
2022-08-29T02:15:20.901Z,101250.94
2022-08-29T02:17:48.466Z,101265.25
2022-08-29T02:20:15.464Z,101274.22
2022-08-29T02:22:42.254Z,101260.38
2022-08-29T02:25:28.998Z,101264.56
2022-08-29T02:27:55.655Z,101258.72
2022-08-29T02:30:22.477Z,101263.94
2022-08-29T02:32:50.206Z,101264.94
2022-08-29T02:35:17.582Z,101261.75
2022-08-29T02:37:44.208Z,101273.53
2022-08-29T02:40:10.917Z,101261.03
2022-08-29T02:42:38.282Z,101276.41
2022-08-29T02:45:05.791Z,101277.09
2022-08-29T02:47:36.479Z,101279.78
2022-08-29T02:50:09.229Z,101276.25
2022-08-29T02:52:39.912Z,101276.25
2022-08-29T02:55:07.779Z,101260.56
2022-08-29T02:57:34.244Z,101275.38
2022-08-29T03:00:00.734Z,101272.88
2022-08-29T03:02:27.794Z,101253.03
2022-08-29T03:04:54.311Z,101285.56
2022-08-29T03:07:20.768Z,101265.19
2022-08-29T03:09:47.230Z,101281.81
2022-08-29T03:12:13.663Z,101283.34
2022-08-29T03:14:40.104Z,101296.53
2022-08-29T03:17:06.596Z,101294.66
2022-08-29T03:19:37.423Z,101293.66
2022-08-29T03:22:04.271Z,101287.94
2022-08-29T03:24:30.838Z,101300.06
2022-08-29T03:26:58.770Z,101295.50
2022-08-29T03:29:25.610Z,101290.63
2022-08-29T03:31:52.376Z,101284.75
2022-08-29T03:34:18.843Z,101308.16
2022-08-29T03:36:45.336Z,101301.94
2022-08-29T03:39:11.802Z,101302.25
2022-08-29T03:41:38.348Z,101312.75
2022-08-29T03:44:04.816Z,101303.81
2022-08-29T03:46:32.277Z,101305.63
2022-08-29T03:48:58.782Z,101321.00
2022-08-29T03:51:29.503Z,101322.88
2022-08-29T03:53:56.144Z,101322.88
2022-08-29T03:56:23.003Z,101327.59
2022-08-29T03:58:53.110Z,101328.59
2022-08-29T04:01:22.479Z,101329.66
2022-08-29T04:03:49.326Z,101314.66
2022-08-29T04:06:15.912Z,101327.97
2022-08-29T04:08:43.433Z,101320.38
2022-08-29T04:11:11.024Z,101335.22
2022-08-29T04:13:37.595Z,101336.25
2022-08-29T04:16:33.825Z,101330.84
2022-08-29T04:19:00.730Z,101341.66
2022-08-29T04:21:27.433Z,101344.50
2022-08-29T04:23:54.152Z,101346.38
2022-08-29T04:26:36.451Z,101352.31
2022-08-29T04:29:05.030Z,101356.88
2022-08-29T04:31:31.586Z,101350.97
2022-08-29T04:33:58.138Z,101353.38
2022-08-29T04:36:24.683Z,101297.22
2022-08-29T04:38:51.131Z,101366.66
2022-08-29T04:41:17.608Z,101369.56
2022-08-29T04:43:47.526Z,101367.88
2022-08-29T04:46:16.342Z,101375.28
2022-08-29T04:48:51.628Z,101370.06
2022-08-29T04:51:18.091Z,101354.75
2022-08-29T04:53:45.050Z,101363.16
2022-08-29T04:56:13.348Z,101356.09
2022-08-29T04:58:43.605Z,101367.03
2022-08-29T05:01:16.327Z,101351.88
2022-08-29T05:03:43.072Z,101363.00
2022-08-29T05:06:12.059Z,101369.59
2022-08-29T05:08:40.951Z,101363.19
2022-08-29T05:11:11.649Z,101376.34
2022-08-29T05:13:38.457Z,101379.72
2022-08-29T05:16:09.582Z,101386.16
2022-08-29T05:18:36.081Z,101382.59
2022-08-29T05:21:02.880Z,101388.19
2022-08-29T05:23:30.215Z,101353.94
2022-08-29T05:26:02.100Z,101390.34
2022-08-29T05:28:30.648Z,101397.75
2022-08-29T05:30:58.770Z,101404.19
2022-08-29T05:33:25.280Z,101395.72
2022-08-29T05:35:51.727Z,101390.84
2022-08-29T05:38:18.267Z,101395.56
2022-08-29T05:40:44.881Z,101388.00
2022-08-29T05:43:11.709Z,101407.03
2022-08-29T05:45:38.948Z,101406.56
2022-08-29T05:48:07.922Z,101413.78
2022-08-29T05:50:42.520Z,101420.38
2022-08-29T05:53:14.268Z,101416.00
2022-08-29T05:55:44.684Z,101407.91
2022-08-29T05:58:12.372Z,101421.72
2022-08-29T06:00:41.016Z,101405.56
2022-08-29T06:03:09.050Z,101420.38
2022-08-29T06:05:35.826Z,101425.44
2022-08-29T06:08:02.487Z,101417.03
2022-08-29T06:10:29.020Z,101432.34
2022-08-29T06:12:55.549Z,101432.53
2022-08-29T06:15:22.592Z,101430.84
2022-08-29T06:17:49.629Z,101435.56
2022-08-29T06:20:16.078Z,101438.25
2022-08-29T06:22:42.648Z,101437.56
2022-08-29T06:25:34.927Z,101433.22
2022-08-29T06:27:56.627Z,101428.63
2022-08-29T06:30:23.056Z,101428.63
2022-08-29T06:32:49.869Z,101447.50
2022-08-29T06:35:16.423Z,101452.59
2022-08-29T06:37:42.921Z,101444.34
2022-08-29T06:40:11.118Z,101458.31
2022-08-29T06:42:37.644Z,101467.75
2022-08-29T06:45:06.322Z,101449.88
2022-08-29T06:47:32.769Z,101458.50
2022-08-29T06:49:59.282Z,101470.63
2022-08-29T06:52:25.786Z,101462.34
2022-08-29T06:54:52.788Z,101468.41
2022-08-29T06:57:19.910Z,101480.72
2022-08-29T06:59:46.393Z,101469.94
2022-08-29T07:02:12.944Z,101469.09
2022-08-29T07:04:39.405Z,101472.28
2022-08-29T07:07:05.908Z,101465.53
2022-08-29T07:09:32.430Z,101458.75
2022-08-29T07:11:58.870Z,101480.38
2022-08-29T07:14:25.372Z,101478.72
2022-08-29T07:16:51.903Z,101465.16
2022-08-29T07:19:18.397Z,101487.31
2022-08-29T07:21:44.892Z,101491.13
2022-08-29T07:24:11.424Z,101485.22
2022-08-29T07:26:42.404Z,101490.63
2022-08-29T07:29:15.504Z,101490.78
2022-08-29T07:31:42.434Z,101484.72
2022-08-29T07:34:09.807Z,101495.50
2022-08-29T07:36:37.277Z,101487.72
2022-08-29T07:39:08.883Z,101495.84
2022-08-29T07:41:36.255Z,101488.56
2022-08-29T07:44:03.254Z,101491.94
2022-08-29T07:46:29.810Z,101509.47
2022-08-29T07:48:57.906Z,101506.09
2022-08-29T07:51:25.671Z,101512.31
2022-08-29T07:53:53.331Z,101501.34
2022-08-29T07:56:26.307Z,101496.44
2022-08-29T07:58:53.912Z,101484.63
2022-08-29T08:01:21.854Z,101512.97
2022-08-29T08:03:50.717Z,101504.88
2022-08-29T08:06:19.383Z,101505.88
2022-08-29T08:08:45.841Z,101515.31
2022-08-29T08:11:12.471Z,101517.81
2022-08-29T08:13:40.162Z,101538.59
2022-08-29T08:16:12.882Z,101548.69
2022-08-29T08:18:42.211Z,101534.34
2022-08-29T08:21:09.466Z,101542.78
2022-08-29T08:23:36.543Z,101543.63
2022-08-29T08:26:03.529Z,101541.25
2022-08-29T08:28:30.709Z,101544.44
2022-08-29T08:31:03.629Z,101550.50
2022-08-29T08:33:34.924Z,101531.59
2022-08-29T08:36:01.863Z,101533.75
2022-08-29T08:38:28.353Z,101548.31
2022-08-29T08:41:13.469Z,101553.00
2022-08-29T08:43:54.003Z,101545.38
2022-08-29T08:46:36.073Z,101551.63
2022-08-29T08:49:06.841Z,101559.03
2022-08-29T08:51:35.507Z,101559.19
2022-08-29T08:54:06.593Z,101551.94
2022-08-29T08:56:46.438Z,101559.34
2022-08-29T08:59:20.151Z,101562.50
2022-08-29T09:02:06.743Z,101557.66
2022-08-29T09:04:52.278Z,101574.81
2022-08-29T09:07:47.932Z,101564.22
2022-08-29T09:10:28.959Z,101568.78
2022-08-29T09:13:14.803Z,101565.38
2022-08-29T09:15:44.453Z,101570.94
2022-08-29T09:18:27.452Z,101553.16
2022-08-29T09:20:54.617Z,101561.28
2022-08-29T09:23:44.320Z,101552.50
2022-08-29T09:26:12.218Z,101535.88
2022-08-29T09:28:40.996Z,101564.63
2022-08-29T09:31:35.395Z,101566.28
2022-08-29T09:34:10.894Z,101562.91
2022-08-29T09:36:39.930Z,101550.31
2022-08-29T09:39:33.902Z,101551.28
2022-08-29T09:42:19.285Z,101555.47
2022-08-29T09:45:18.116Z,101567.94
2022-08-29T09:47:45.408Z,101559.50
2022-08-29T09:50:25.864Z,101567.03
2022-08-29T09:52:56.309Z,101570.41
2022-08-29T09:55:42.556Z,101564.34
2022-08-29T09:58:20.385Z,101567.19
2022-08-29T10:00:59.327Z,101571.03
2022-08-29T10:03:27.107Z,101570.53
2022-08-29T10:06:17.481Z,101582.66
2022-08-29T10:08:55.739Z,101577.22
2022-08-29T10:11:29.675Z,101587.69
2022-08-29T10:14:01.252Z,101588.16
2022-08-29T10:16:27.899Z,101588.28
2022-08-29T10:19:02.208Z,101574.09
2022-08-29T10:21:40.820Z,101578.84
2022-08-29T10:24:21.645Z,101588.91
2022-08-29T10:27:23.785Z,101590.94
2022-08-29T10:30:07.549Z,101587.38
2022-08-29T10:32:40.059Z,101590.94
2022-08-29T10:35:29.788Z,101598.34
2022-08-29T10:38:15.393Z,101590.25
2022-08-29T10:41:02.004Z,101589.56
2022-08-29T10:43:40.234Z,101590.41
2022-08-29T10:46:28.318Z,101594.25
2022-08-29T10:48:57.687Z,101580.94
2022-08-29T10:51:31.383Z,101583.78
2022-08-29T10:54:21.517Z,101586.94
2022-08-29T10:56:50.390Z,101584.41
2022-08-29T10:59:37.351Z,101588.19
2022-08-29T11:02:10.868Z,101601.63
2022-08-29T11:04:42.725Z,101598.94
2022-08-29T11:07:20.854Z,101573.94
2022-08-29T11:09:55.083Z,101591.47
2022-08-29T11:12:45.331Z,101573.53
2022-08-29T11:15:35.226Z,101574.84
2022-08-29T11:18:11.126Z,101581.44
2022-08-29T11:20:48.405Z,101583.06
2022-08-29T11:23:39.028Z,101588.75
2022-08-29T11:26:20.483Z,101586.81
2022-08-29T11:29:02.184Z,101590.22
2022-08-29T11:31:50.618Z,101597.59
2022-08-29T11:34:32.412Z,101603.81
2022-08-29T11:37:05.697Z,101600.28
2022-08-29T11:39:47.668Z,101601.28
2022-08-29T11:45:10.549Z,101600.84
2022-08-29T11:47:46.252Z,101600.69
2022-08-29T11:50:33.503Z,101601.38
2022-08-29T11:53:02.480Z,101604.75
2022-08-29T11:55:34.034Z,101600.91
2022-08-29T11:58:11.302Z,101591.28
2022-08-29T12:00:43.276Z,101594.66
2022-08-29T12:03:35.035Z,101606.44
2022-08-29T12:06:15.774Z,101599.22
2022-08-29T12:08:47.049Z,101596.66
2022-08-29T12:11:13.580Z,101610.28
2022-08-29T12:14:01.382Z,101603.19
2022-08-29T12:16:50.542Z,101604.22
2022-08-29T12:19:52.021Z,101612.16
2022-08-29T12:22:55.853Z,101615.81
2022-08-29T12:25:28.303Z,101612.44
2022-08-29T12:28:03.820Z,101605.38
2022-08-29T12:30:42.182Z,101607.38
2022-08-29T12:33:39.337Z,101605.53
2022-08-29T12:36:31.456Z,101602.81
2022-08-29T12:39:19.634Z,101603.81
2022-08-29T12:41:50.197Z,101604.69
2022-08-29T12:44:22.202Z,101602.00
2022-08-29T12:46:55.848Z,101593.03
2022-08-29T12:49:38.403Z,101597.75
2022-08-29T12:52:08.266Z,101574.75
2022-08-29T12:54:38.277Z,101585.91
2022-08-29T12:57:19.538Z,101590.28
2022-08-29T12:59:48.824Z,101593.03
2022-08-29T13:02:34.717Z,101599.44
2022-08-29T13:05:19.585Z,101577.69
2022-08-29T13:08:09.661Z,101584.97
2022-08-29T13:10:51.728Z,101590.91
2022-08-29T13:13:21.055Z,101586.81
2022-08-29T13:15:56.440Z,101580.50
2022-08-29T13:18:23.725Z,101584.97
2022-08-29T13:21:21.388Z,101585.16
2022-08-29T13:24:16.936Z,101571.84
2022-08-29T13:27:04.904Z,101574.53
2022-08-29T13:29:41.967Z,101570.63
2022-08-29T13:32:23.088Z,101576.53
2022-08-29T13:35:15.277Z,101583.44
2022-08-29T13:37:45.990Z,101578.06
2022-08-29T13:40:50.525Z,101576.91
2022-08-29T13:43:33.159Z,101575.78
2022-08-29T13:46:16.545Z,101567.97
2022-08-29T13:48:44.544Z,101571.91
2022-08-29T13:51:11.576Z,101570.91
2022-08-29T13:53:38.719Z,101569.75
2022-08-29T13:56:21.576Z,101570.63
2022-08-29T13:58:48.678Z,101575.44
2022-08-29T14:02:07.232Z,101558.97
2022-08-29T14:04:27.111Z,101564.06
2022-08-29T14:06:48.338Z,101565.94
2022-08-29T14:09:19.687Z,101565.75
2022-08-29T14:11:46.262Z,101553.59
2022-08-29T14:14:12.983Z,101548.63
2022-08-29T14:16:39.454Z,101556.34
2022-08-29T14:19:06.082Z,101551.31
2022-08-29T14:21:32.597Z,101527.56
2022-08-29T14:23:59.080Z,101553.75
2022-08-29T14:26:26.267Z,101559.69
2022-08-29T14:28:52.717Z,101556.38
2022-08-29T14:31:19.411Z,101555.22
2022-08-29T14:33:45.906Z,101566.50
2022-08-29T14:36:18.745Z,101563.44
2022-08-29T14:38:45.300Z,101564.97
2022-08-29T14:41:11.752Z,101569.88
2022-08-29T14:43:40.001Z,101565.97
2022-08-29T14:46:06.972Z,101569.88
2022-08-29T14:48:33.799Z,101558.75
2022-08-29T14:51:00.259Z,101552.03
2022-08-29T14:53:26.826Z,101560.38
2022-08-29T14:55:54.668Z,101566.53
2022-08-29T14:58:21.127Z,101562.72
2022-08-29T15:00:47.652Z,101562.44
2022-08-29T15:03:14.508Z,101555.03
2022-08-29T15:05:43.614Z,101563.22
2022-08-29T15:08:15.456Z,101560.88
2022-08-29T15:10:42.622Z,101558.34
2022-08-29T15:13:09.146Z,101558.50
2022-08-29T15:15:35.941Z,101563.22
2022-08-29T15:18:05.571Z,101562.53
2022-08-29T15:20:36.899Z,101568.06
2022-08-29T15:23:04.849Z,101562.19
2022-08-29T15:25:31.540Z,101545.44
2022-08-29T15:27:58.066Z,101567.38
2022-08-29T15:30:25.582Z,101572.09
2022-08-29T15:32:52.276Z,101562.78
2022-08-29T15:35:18.899Z,101563.78
2022-08-29T15:37:45.404Z,101554.97
2022-08-29T15:40:13.782Z,101565.13
2022-08-29T15:42:40.610Z,101571.50
2022-08-29T15:45:09.363Z,101569.81
2022-08-29T15:47:37.914Z,101573.69
2022-08-29T15:50:07.835Z,101562.22
2022-08-29T15:52:35.206Z,101570.31
2022-08-29T15:55:02.029Z,101556.88
2022-08-29T15:57:28.707Z,101572.47
2022-08-29T15:59:58.098Z,101563.00
2022-08-29T16:02:26.267Z,101556.69
2022-08-29T16:04:56.769Z,101563.44
2022-08-29T16:07:25.436Z,101572.22
2022-08-29T16:09:56.627Z,101568.00
2022-08-29T16:12:23.127Z,101577.25
2022-08-29T16:15:09.498Z,101561.72
2022-08-29T16:17:36.282Z,101565.09
2022-08-29T16:20:03.912Z,101572.34
2022-08-29T16:22:30.991Z,101574.34
2022-08-29T16:24:58.363Z,101566.88
2022-08-29T16:27:24.935Z,101558.94
2022-08-29T16:29:53.055Z,101552.50
2022-08-29T16:32:20.357Z,101565.72
2022-08-29T16:34:47.018Z,101564.88
2022-08-29T16:37:13.565Z,101556.78
2022-08-29T16:39:40.087Z,101564.69
2022-08-29T16:42:06.645Z,101562.88
2022-08-29T16:44:33.894Z,101566.41
2022-08-29T16:47:00.403Z,101567.25
2022-08-29T16:49:26.952Z,101576.16
2022-08-29T16:51:53.455Z,101574.34
2022-08-29T16:54:19.936Z,101562.19
2022-08-29T16:56:46.543Z,101576.16
2022-08-29T16:59:13.520Z,101578.72
2022-08-29T17:01:46.875Z,101577.72
2022-08-29T17:04:16.386Z,101581.25
2022-08-29T17:06:43.226Z,101581.41
2022-08-29T17:09:10.088Z,101577.03
2022-08-29T17:11:37.995Z,101578.34
2022-08-29T17:14:05.904Z,101586.94
2022-08-29T17:16:32.848Z,101588.66
2022-08-29T17:18:59.887Z,101588.66
2022-08-29T17:21:27.184Z,101586.94
2022-08-29T17:23:55.322Z,101589.50
2022-08-29T17:26:22.386Z,101587.41
2022-08-29T17:28:48.963Z,101591.34
2022-08-29T17:31:15.897Z,101585.06
2022-08-29T17:33:42.667Z,101589.97
2022-08-29T17:36:10.500Z,101597.56
2022-08-29T17:38:40.150Z,101587.41
2022-08-29T17:41:14.736Z,101603.28
2022-08-29T17:43:42.955Z,101606.97
2022-08-29T17:46:09.809Z,101597.50
2022-08-29T17:48:36.534Z,101607.81
2022-08-29T17:51:03.333Z,101602.88
2022-08-29T17:53:30.030Z,101612.06
2022-08-29T17:55:56.554Z,101607.28
2022-08-29T17:58:23.058Z,101609.38
2022-08-29T18:00:50.394Z,101607.28
2022-08-29T18:03:18.246Z,101618.28
2022-08-29T18:05:44.995Z,101619.13
2022-08-29T18:08:11.463Z,101610.50
2022-08-29T18:10:39.604Z,101612.91
2022-08-29T18:13:06.140Z,101625.34
2022-08-29T18:15:35.277Z,101614.22
2022-08-29T18:18:02.187Z,101609.81
2022-08-29T18:20:28.950Z,101639.69
2022-08-29T18:22:55.598Z,101635.63
2022-08-29T18:25:22.261Z,101650.47
2022-08-29T18:27:50.224Z,101646.06
2022-08-29T18:30:16.830Z,101647.22
2022-08-29T18:32:43.631Z,101654.84
2022-08-29T18:35:11.035Z,101644.38
2022-08-29T18:37:37.706Z,101654.84
2022-08-29T18:40:05.354Z,101645.53
2022-08-29T18:42:40.361Z,101651.31
2022-08-29T18:45:07.521Z,101646.38
2022-08-29T18:47:33.966Z,101660.22
2022-08-29T18:50:19.096Z,101663.75
2022-08-29T18:52:45.948Z,101662.69
2022-08-29T18:55:15.861Z,101664.78
2022-08-29T18:57:44.886Z,101665.63
2022-08-29T19:00:11.904Z,101667.47
2022-08-29T19:02:38.568Z,101661.69
2022-08-29T19:05:05.966Z,101659.31
2022-08-29T19:07:32.435Z,101653.22
2022-08-29T19:09:58.896Z,101668.63
2022-08-29T19:12:25.352Z,101672.03
2022-08-29T19:14:51.929Z,101668.47
2022-08-29T19:17:18.847Z,101644.78
2022-08-29T19:20:04.068Z,101664.78
2022-08-29T19:22:38.033Z,101672.69
2022-08-29T19:25:06.086Z,101682.63
2022-08-29T19:27:43.242Z,101669.94
2022-08-29T19:30:12.170Z,101677.22
2022-08-29T19:32:39.137Z,101689.72
2022-08-29T19:35:06.023Z,101687.72
2022-08-29T19:37:33.080Z,101692.25
2022-08-29T19:39:59.601Z,101681.78
2022-08-29T19:42:28.131Z,101679.22
2022-08-29T19:44:54.953Z,101698.31
2022-08-29T19:47:22.983Z,101701.34
2022-08-29T19:49:50.989Z,101698.31
2022-08-29T19:52:17.645Z,101693.94
2022-08-29T19:54:44.129Z,101703.72
2022-08-29T19:57:13.421Z,101697.34
2022-08-29T19:59:41.242Z,101700.03
2022-08-29T20:02:09.338Z,101684.81
2022-08-29T20:04:36.328Z,101694.78
2022-08-29T20:07:03.095Z,101701.00
2022-08-29T20:09:30.154Z,101688.56
2022-08-29T20:11:57.288Z,101691.72
2022-08-29T20:14:24.355Z,101691.25
2022-08-29T20:16:51.667Z,101690.00
2022-08-29T20:19:19.080Z,101693.94
2022-08-29T20:21:45.878Z,101698.50
2022-08-29T20:24:15.613Z,101691.41
2022-08-29T20:26:44.369Z,101701.19
2022-08-29T20:29:12.041Z,101697.63
2022-08-29T20:31:39.592Z,101703.34
2022-08-29T20:34:06.295Z,101702.31
2022-08-29T20:36:51.446Z,101705.88
2022-08-29T20:39:19.875Z,101702.31
2022-08-29T20:41:55.505Z,101697.94
2022-08-29T20:44:24.749Z,101695.09
2022-08-29T20:46:52.157Z,101694.25
2022-08-29T20:49:24.800Z,101699.63
2022-08-29T20:51:51.896Z,101696.28
2022-08-29T20:54:21.991Z,101695.25
2022-08-29T20:56:48.816Z,101660.50
2022-08-29T20:59:15.804Z,101705.00
2022-08-29T21:01:43.319Z,101705.88
2022-08-29T21:04:30.575Z,101705.88
2022-08-29T21:07:00.105Z,101660.31
2022-08-29T21:09:26.950Z,101709.75
2022-08-29T21:11:53.716Z,101700.56
2022-08-29T21:14:22.504Z,101714.13
2022-08-29T21:16:53.732Z,101717.81
2022-08-29T21:19:22.102Z,101721.50
2022-08-29T21:21:51.075Z,101717.81
2022-08-29T21:24:18.497Z,101704.28
2022-08-29T21:26:45.195Z,101717.81
2022-08-29T21:29:11.779Z,101713.28
2022-08-29T21:31:39.475Z,101715.13
2022-08-29T21:34:08.764Z,101716.97
2022-08-29T21:36:36.084Z,101712.44
2022-08-29T21:39:05.483Z,101685.34
2022-08-29T21:41:33.875Z,101715.28
2022-08-29T21:44:00.470Z,101722.34
2022-08-29T21:46:29.977Z,101720.53
2022-08-29T21:49:00.957Z,101726.91
2022-08-29T21:51:28.815Z,101728.59
2022-08-29T21:53:56.919Z,101623.91
2022-08-29T21:56:25.035Z,101730.44
2022-08-29T21:58:56.083Z,101728.06
2022-08-29T22:01:27.161Z,101726.06
2022-08-29T22:03:54.539Z,101712.50
2022-08-29T22:06:21.494Z,101726.06
2022-08-29T22:08:48.315Z,101725.22
2022-08-29T22:11:18.724Z,101725.22
2022-08-29T22:13:45.286Z,101721.28
2022-08-29T22:16:28.585Z,101738.69
2022-08-29T22:19:01.150Z,101733.44
2022-08-29T22:21:30.078Z,101739.66
2022-08-29T22:23:56.631Z,101738.00
2022-08-29T22:26:23.620Z,101740.69
2022-08-29T22:28:50.678Z,101743.38
2022-08-29T22:31:17.778Z,101740.69
2022-08-29T22:33:45.414Z,101728.66
2022-08-29T22:36:14.103Z,101742.50
2022-08-29T22:38:42.213Z,101744.22
2022-08-29T22:41:10.867Z,101719.66
2022-08-29T22:43:37.924Z,101739.81
2022-08-29T22:46:12.969Z,101742.50
2022-08-29T22:48:40.655Z,101739.81
2022-08-29T22:51:18.492Z,101738.28
2022-08-29T22:54:05.128Z,101743.53
2022-08-29T22:56:33.700Z,101740.00
2022-08-29T22:59:00.854Z,101740.00
2022-08-29T23:01:29.737Z,101735.59
2022-08-29T23:03:56.519Z,101745.38
2022-08-29T23:06:24.365Z,101749.91
2022-08-29T23:08:51.299Z,101743.66
2022-08-29T23:11:18.028Z,101744.50
2022-08-29T23:13:46.014Z,101737.75
2022-08-29T23:16:13.619Z,101735.75
2022-08-29T23:18:40.735Z,101744.50
2022-08-29T23:21:07.270Z,101741.81
2022-08-29T23:23:34.832Z,101738.28
2022-08-29T23:26:04.318Z,101732.91
2022-08-29T23:28:31.467Z,101733.50
2022-08-29T23:30:58.845Z,101732.91
2022-08-29T23:33:26.007Z,101723.75
2022-08-29T23:35:53.148Z,101731.22
2022-08-29T23:38:19.972Z,101727.69
2022-08-29T23:40:50.516Z,101739.28
2022-08-29T23:43:18.558Z,101728.13
2022-08-29T23:45:45.081Z,101743.84
2022-08-29T23:48:11.591Z,101745.66
2022-08-29T23:50:38.298Z,101743.84
2022-08-29T23:53:04.979Z,101752.06
2022-08-29T23:55:31.504Z,101749.38
2022-08-29T23:57:58.060Z,101743.63
